Flight Track Log - Related Links

Times and Time Zones

All times are in EDT time to prevent confusion due to time zone crossing. See the N909EA flight status page for this flight to view local times or setup timezone preferences in your user account.


Time Position Orientation Groundspeed Altitude Reporting Facility
EDT Latitude Longitude Course Direction KTS MPH feet Rate Location/Type
Sun 11:24:18 AM 32.1444 -80.7678 224° Southwest 175 201 3,100  Level Jacksonville Center
Sun 11:25:18 AM 32.1581 -80.8336 284° West 170 196 4,800 1,450 Climbing Jacksonville Center
Sun 11:26:18 AM 32.1694 -80.8900 283° West 180 207 6,000 1,250 Climbing Jacksonville Center
Sun 11:27:18 AM 32.1808 -80.9461 283° West 180 207 7,300 1,300 Climbing Jacksonville Center
Sun 11:28:00 AM 32.2767 -81.0271 281° West  Level FlightAware Approximate
Sun 11:28:18 AM 32.1900 -81.0000 281° West 186 214 8,600  Level Jacksonville Center
Sun 11:29:18 AM 32.2056 -81.0683 285° West 186 214 9,900 1,150 Climbing Jacksonville Center
Sun 11:30:18 AM 32.2167 -81.1197 284° West 179 206 10,900 1,100 Climbing Jacksonville Center
Sun 11:31:18 AM 32.2322 -81.1808 287° West 191 220 12,100 1,150 Climbing Jacksonville Center
Sun 11:32:18 AM 32.2436 -81.2444 282° West 197 227 13,200 1,150 Climbing Jacksonville Center
Sun 11:33:18 AM 32.2547 -81.3081 282° West 202 232 14,400 1,150 Climbing Jacksonville Center
Sun 11:34:18 AM 32.2703 -81.3742 286° West 202 232 15,500 1,100 Climbing Jacksonville Center
Sun 11:35:18 AM 32.2836 -81.4453 283° West 202 232 16,600 1,050 Climbing Jacksonville Center
Sun 11:36:18 AM 32.2967 -81.5064 284° West 207 238 17,600 850 Climbing Jacksonville Center
Sun 11:37:18 AM 32.3100 -81.5750 283° West 207 238 18,300 774 Climbing Jacksonville Center
Sun 11:39:24 AM 32.3361 -81.7108 283° West 215 247 20,000 548 Climbing Atlanta Center
Sun 11:40:24 AM 32.3522 -81.7867 284° West 225 259 20,000  Level Atlanta Center
Sun 11:41:24 AM 32.3681 -81.8650 283° West 240 276 20,000  Level Atlanta Center
Sun 11:42:24 AM 32.3842 -81.9433 284° West 245 282 20,000  Level Atlanta Center
Sun 11:43:24 AM 32.4022 -82.0217 285° West 250 288 20,000  Level Atlanta Center
Sun 11:44:24 AM 32.4161 -82.1050 281° West 250 288 20,000  Level Atlanta Center
Sun 11:45:24 AM 32.4319 -82.1858 283° West 255 293 20,000  Level Atlanta Center
Sun 11:46:24 AM 32.4561 -82.2639 290° West 255 293 20,000  Level Atlanta Center
Sun 11:47:24 AM 32.5028 -82.3344 308° West 255 293 20,000  Level Atlanta Center
Sun 11:48:24 AM 32.5497 -82.4000 310° West 262 302 20,000  Level Atlanta Center
Sun 11:49:24 AM 32.5944 -82.4708 307° West 267 307 20,000  Level Atlanta Center
Sun 11:50:24 AM 32.6411 -82.5367 310° West 267 307 20,000  Level Atlanta Center
Sun 11:51:24 AM 32.6858 -82.6075 307° West 267 307 20,000  Level Atlanta Center
Sun 11:52:24 AM 32.7325 -82.6733 310° West 267 307 20,000  Level Atlanta Center
Sun 11:53:24 AM 32.7772 -82.7442 307° West 267 307 20,000  Level Atlanta Center
Sun 11:54:24 AM 32.8239 -82.8128 309° West 272 313 20,000  Level Atlanta Center
Sun 11:55:24 AM 32.8683 -82.8814 308° West 267 307 20,000 -450 Level Atlanta Center
Sun 11:56:24 AM 32.9169 -82.9525 309° West 267 307 19,100 -1,050 Descending Atlanta Center
Sun 11:57:24 AM 32.9633 -83.0214 309° West 267 307 17,900 -1,400 Descending Atlanta Center
Sun 11:58:24 AM 33.0058 -83.0900 306° West 267 307 16,300 -1,500 Descending Atlanta Center
Sun 11:59:24 AM 33.0522 -83.1592 309° West 267 307 14,900 -1,500 Descending Atlanta Center
Sun 12:00:24 PM 33.1008 -83.2378 306° West 272 313 13,300 -1,450 Descending Atlanta Center
Sun 12:01:24 PM 33.1472 -83.3094 308° West 272 313 12,000 -1,400 Descending Atlanta Center
Sun 12:02:24 PM 33.1975 -83.3761 312° West 272 313 10,500 -1,450 Descending Atlanta Center
Sun 12:03:24 PM 33.2397 -83.4478 305° West 272 313 9,100 -1,200 Descending Atlanta Center
Sun 12:04:24 PM 33.2797 -83.5047 310° West 267 307 8,100 -550 Descending Atlanta Center
Sun 12:05:24 PM 33.3194 -83.5689 307° West 256 295 8,000 -50 Descending Atlanta Center
Sun 12:06:24 PM 33.3614 -83.6308 309° West 249 287 8,000 -545 Level Atlanta Center
Sun 12:08:53 PM 33.5167 -83.7333 331° Northwest 257 296 6,100 -890 Descending Atlanta TRACON
Sun 12:09:53 PM 33.5833 -83.7667 337° Northwest 247 284 4,900 -1,105 Descending Atlanta TRACON
Sun 12:10:47 PM 33.6333 -83.8000 331° Northwest 248 285 4,000 -526 Descending Atlanta TRACON
Sun 12:11:47 PM 33.7000 -83.8333 337° Northwest 246 283 3,900 -50 Descending Atlanta TRACON
Sun 12:12:47 PM 33.7667 -83.8667 337° Northwest 240 276 3,900  Level Atlanta TRACON
Sun 12:14:00 PM 33.8489 -83.8661 337° Northwest  Level FlightAware Approximate
Sun 12:14:47 PM 33.8833 -83.9333 337° Northwest 238 274 3,900  Level Atlanta TRACON
Sun 12:15:47 PM 33.9333 -83.9667 331° Northwest 245 282 4,000  Climbing Atlanta TRACON
Sun 12:16:47 PM 33.9833 -84.0167 320° Northwest 233 268 3,900 -56 Descending Atlanta TRACON
Sun 12:17:35 PM 34.0167 -84.0667 309° West 231 266 3,900 -222 Level Atlanta TRACON
Sun 12:18:35 PM 34.0333 -84.1333 287° West 199 229 3,500 -500 Descending Atlanta TRACON
Sun 12:19:35 PM 34.0500 -84.1833 292° West 173 199 2,900 -300 Descending Atlanta TRACON
Sun 12:20:35 PM 34.0167 -84.2333 231° Southwest 171 197 2,900  Level Atlanta TRACON
Sun 12:21:35 PM 33.9833 -84.2500 203° Southwest 156 180 2,900 -316 Level Atlanta TRACON
Sun 12:22:29 PM 33.9500 -84.2667 203° Southwest 127 146 2,300 -684 Descending Atlanta TRACON
Sun 12:23:29 PM 33.9167 -84.2833 203° Southwest 113 130 1,600 -700 Descending Atlanta TRACON
Sun 12:25:00 PM 33.8756 -84.3020 220° Southwest  Level Estimated

Login

Don't have an account? Register now (free) for customized features, flight alerts, and more!